sensor_id;sensor_type;location;lat;lon;timestamp;P1;durP1;ratioP1;P2;durP2;ratioP2
53751;SDS011;41095;53.090;6.692;2023-07-28T00:01:41;18.08;;;10.13;;
53751;SDS011;41095;53.090;6.692;2023-07-28T00:04:07;20.38;;;11.60;;
53751;SDS011;41095;53.090;6.692;2023-07-28T00:06:34;21.08;;;10.63;;
53751;SDS011;41095;53.090;6.692;2023-07-28T00:09:00;21.70;;;10.90;;
53751;SDS011;41095;53.090;6.692;2023-07-28T00:11:26;19.90;;;11.27;;
53751;SDS011;41095;53.090;6.692;2023-07-28T00:13:51;17.63;;;11.05;;
53751;SDS011;41095;53.090;6.692;2023-07-28T00:16:17;15.82;;;10.38;;
53751;SDS011;41095;53.090;6.692;2023-07-28T00:18:42;17.50;;;10.82;;
53751;SDS011;41095;53.090;6.692;2023-07-28T00:21:08;17.05;;;8.82;;
53751;SDS011;41095;53.090;6.692;2023-07-28T00:23:34;12.40;;;9.48;;
53751;SDS011;41095;53.090;6.692;2023-07-28T00:26:00;14.70;;;9.48;;
53751;SDS011;41095;53.090;6.692;2023-07-28T00:28:25;12.38;;;8.88;;
53751;SDS011;41095;53.090;6.692;2023-07-28T00:30:51;17.23;;;9.95;;
53751;SDS011;41095;53.090;6.692;2023-07-28T00:33:17;13.23;;;9.18;;
53751;SDS011;41095;53.090;6.692;2023-07-28T00:35:42;11.32;;;8.95;;
53751;SDS011;41095;53.090;6.692;2023-07-28T00:38:08;15.82;;;10.05;;
53751;SDS011;41095;53.090;6.692;2023-07-28T00:40:35;16.30;;;10.40;;
53751;SDS011;41095;53.090;6.692;2023-07-28T00:43:01;15.30;;;9.23;;
53751;SDS011;41095;53.090;6.692;2023-07-28T00:45:27;18.08;;;10.65;;
53751;SDS011;41095;53.090;6.692;2023-07-28T00:47:55;16.52;;;10.52;;
53751;SDS011;41095;53.090;6.692;2023-07-28T00:50:23;17.15;;;11.32;;
53751;SDS011;41095;53.090;6.692;2023-07-28T00:52:49;18.40;;;12.02;;
53751;SDS011;41095;53.090;6.692;2023-07-28T00:55:15;15.95;;;11.43;;
53751;SDS011;41095;53.090;6.692;2023-07-28T00:57:41;22.83;;;11.43;;
53751;SDS011;41095;53.090;6.692;2023-07-28T01:00:07;19.25;;;11.40;;
53751;SDS011;41095;53.090;6.692;2023-07-28T01:02:33;16.42;;;11.13;;
53751;SDS011;41095;53.090;6.692;2023-07-28T01:04:59;18.40;;;12.77;;
53751;SDS011;41095;53.090;6.692;2023-07-28T01:12:19;19.35;;;12.57;;
53751;SDS011;41095;53.090;6.692;2023-07-28T01:14:45;19.90;;;11.57;;
53751;SDS011;41095;53.090;6.692;2023-07-28T01:17:11;17.83;;;12.57;;
53751;SDS011;41095;53.090;6.692;2023-07-28T01:19:37;23.25;;;15.52;;
53751;SDS011;41095;53.090;6.692;2023-07-28T01:22:25;23.67;;;15.57;;
53751;SDS011;41095;53.090;6.692;2023-07-28T01:27:34;26.48;;;15.02;;
53751;SDS011;41095;53.090;6.692;2023-07-28T01:30:02;26.85;;;16.70;;
53751;SDS011;41095;53.090;6.692;2023-07-28T01:32:28;24.92;;;17.00;;
53751;SDS011;41095;53.090;6.692;2023-07-28T01:34:54;24.73;;;15.00;;
53751;SDS011;41095;53.090;6.692;2023-07-28T01:37:20;25.05;;;15.00;;
53751;SDS011;41095;53.090;6.692;2023-07-28T01:39:46;19.98;;;13.90;;
53751;SDS011;41095;53.090;6.692;2023-07-28T01:42:11;23.30;;;14.95;;
53751;SDS011;41095;53.090;6.692;2023-07-28T01:44:37;22.55;;;15.65;;
53751;SDS011;41095;53.090;6.692;2023-07-28T01:47:03;23.65;;;15.55;;
53751;SDS011;41095;53.090;6.692;2023-07-28T01:49:28;21.40;;;14.57;;
53751;SDS011;41095;53.090;6.692;2023-07-28T01:51:54;22.70;;;15.23;;
53751;SDS011;41095;53.090;6.692;2023-07-28T01:54:20;24.60;;;16.17;;
53751;SDS011;41095;53.090;6.692;2023-07-28T01:56:45;26.52;;;18.55;;
53751;SDS011;41095;53.090;6.692;2023-07-28T01:59:11;25.95;;;15.77;;
53751;SDS011;41095;53.090;6.692;2023-07-28T02:01:38;21.88;;;16.70;;
53751;SDS011;41095;53.090;6.692;2023-07-28T02:04:04;23.35;;;17.67;;
53751;SDS011;41095;53.090;6.692;2023-07-28T02:06:31;27.33;;;17.00;;
53751;SDS011;41095;53.090;6.692;2023-07-28T02:08:56;30.38;;;18.23;;
53751;SDS011;41095;53.090;6.692;2023-07-28T02:11:22;26.20;;;16.42;;
53751;SDS011;41095;53.090;6.692;2023-07-28T02:13:48;25.10;;;17.15;;
53751;SDS011;41095;53.090;6.692;2023-07-28T02:16:14;23.15;;;15.63;;
53751;SDS011;41095;53.090;6.692;2023-07-28T02:18:39;29.40;;;16.90;;
53751;SDS011;41095;53.090;6.692;2023-07-28T02:21:07;22.13;;;16.67;;
53751;SDS011;41095;53.090;6.692;2023-07-28T02:23:33;27.33;;;17.75;;
53751;SDS011;41095;53.090;6.692;2023-07-28T02:25:59;27.15;;;16.55;;
53751;SDS011;41095;53.090;6.692;2023-07-28T02:28:25;26.40;;;16.92;;
53751;SDS011;41095;53.090;6.692;2023-07-28T02:30:50;24.10;;;17.30;;
53751;SDS011;41095;53.090;6.692;2023-07-28T02:33:16;22.77;;;15.00;;
53751;SDS011;41095;53.090;6.692;2023-07-28T02:35:41;25.23;;;16.77;;
53751;SDS011;41095;53.090;6.692;2023-07-28T02:38:07;26.90;;;15.95;;
53751;SDS011;41095;53.090;6.692;2023-07-28T02:40:33;23.75;;;14.43;;
53751;SDS011;41095;53.090;6.692;2023-07-28T02:42:59;25.73;;;14.38;;
53751;SDS011;41095;53.090;6.692;2023-07-28T02:45:25;30.02;;;16.48;;
53751;SDS011;41095;53.090;6.692;2023-07-28T02:47:51;22.63;;;15.80;;
53751;SDS011;41095;53.090;6.692;2023-07-28T02:50:16;24.80;;;14.93;;
53751;SDS011;41095;53.090;6.692;2023-07-28T02:52:42;22.73;;;15.93;;
53751;SDS011;41095;53.090;6.692;2023-07-28T02:55:08;20.63;;;14.27;;
53751;SDS011;41095;53.090;6.692;2023-07-28T02:57:33;20.38;;;13.35;;
53751;SDS011;41095;53.090;6.692;2023-07-28T02:59:59;22.17;;;15.45;;
53751;SDS011;41095;53.090;6.692;2023-07-28T03:02:25;31.15;;;14.43;;
53751;SDS011;41095;53.090;6.692;2023-07-28T03:04:50;18.70;;;14.48;;
53751;SDS011;41095;53.090;6.692;2023-07-28T03:07:16;26.40;;;15.32;;
53751;SDS011;41095;53.090;6.692;2023-07-28T03:09:42;21.90;;;13.13;;
53751;SDS011;41095;53.090;6.692;2023-07-28T03:12:08;30.88;;;16.63;;
53751;SDS011;41095;53.090;6.692;2023-07-28T03:14:34;22.52;;;14.90;;
53751;SDS011;41095;53.090;6.692;2023-07-28T03:16:59;24.58;;;14.10;;
53751;SDS011;41095;53.090;6.692;2023-07-28T03:19:25;22.10;;;12.85;;
53751;SDS011;41095;53.090;6.692;2023-07-28T03:21:51;26.27;;;14.25;;
53751;SDS011;41095;53.090;6.692;2023-07-28T03:24:16;16.52;;;10.73;;
53751;SDS011;41095;53.090;6.692;2023-07-28T03:26:42;26.10;;;13.30;;
53751;SDS011;41095;53.090;6.692;2023-07-28T03:29:08;22.98;;;13.18;;
53751;SDS011;41095;53.090;6.692;2023-07-28T03:31:34;21.00;;;10.45;;
53751;SDS011;41095;53.090;6.692;2023-07-28T03:34:01;23.00;;;13.98;;
53751;SDS011;41095;53.090;6.692;2023-07-28T03:36:28;27.42;;;13.45;;
53751;SDS011;41095;53.090;6.692;2023-07-28T03:38:53;21.23;;;12.10;;
53751;SDS011;41095;53.090;6.692;2023-07-28T03:41:19;19.10;;;12.43;;
53751;SDS011;41095;53.090;6.692;2023-07-28T03:43:45;19.27;;;12.57;;
53751;SDS011;41095;53.090;6.692;2023-07-28T03:46:11;16.75;;;11.57;;
53751;SDS011;41095;53.090;6.692;2023-07-28T03:48:37;23.20;;;13.20;;
53751;SDS011;41095;53.090;6.692;2023-07-28T03:51:03;20.35;;;11.60;;
53751;SDS011;41095;53.090;6.692;2023-07-28T03:53:29;18.63;;;11.20;;
53751;SDS011;41095;53.090;6.692;2023-07-28T03:55:54;24.02;;;12.65;;
53751;SDS011;41095;53.090;6.692;2023-07-28T03:58:23;17.70;;;10.88;;
53751;SDS011;41095;53.090;6.692;2023-07-28T04:00:51;22.75;;;11.25;;
53751;SDS011;41095;53.090;6.692;2023-07-28T04:03:17;13.63;;;9.60;;
53751;SDS011;41095;53.090;6.692;2023-07-28T04:05:43;20.90;;;11.27;;
53751;SDS011;41095;53.090;6.692;2023-07-28T04:08:09;19.27;;;11.82;;
53751;SDS011;41095;53.090;6.692;2023-07-28T04:10:34;14.32;;;11.43;;
53751;SDS011;41095;53.090;6.692;2023-07-28T04:13:00;20.00;;;11.10;;
53751;SDS011;41095;53.090;6.692;2023-07-28T04:15:26;20.30;;;11.10;;
53751;SDS011;41095;53.090;6.692;2023-07-28T04:17:51;18.80;;;12.02;;
53751;SDS011;41095;53.090;6.692;2023-07-28T04:20:17;20.73;;;11.50;;
53751;SDS011;41095;53.090;6.692;2023-07-28T04:22:43;14.70;;;9.93;;
53751;SDS011;41095;53.090;6.692;2023-07-28T04:25:08;18.25;;;11.10;;
53751;SDS011;41095;53.090;6.692;2023-07-28T04:27:34;26.08;;;10.73;;
53751;SDS011;41095;53.090;6.692;2023-07-28T04:29:59;16.63;;;9.65;;
53751;SDS011;41095;53.090;6.692;2023-07-28T04:32:26;20.00;;;11.00;;
53751;SDS011;41095;53.090;6.692;2023-07-28T04:34:51;16.77;;;10.77;;
53751;SDS011;41095;53.090;6.692;2023-07-28T04:37:18;15.38;;;9.38;;
53751;SDS011;41095;53.090;6.692;2023-07-28T04:39:44;16.15;;;10.23;;
53751;SDS011;41095;53.090;6.692;2023-07-28T04:42:10;15.23;;;9.38;;
53751;SDS011;41095;53.090;6.692;2023-07-28T04:44:37;18.67;;;10.45;;
53751;SDS011;41095;53.090;6.692;2023-07-28T04:47:04;14.02;;;9.77;;
53751;SDS011;41095;53.090;6.692;2023-07-28T04:49:30;17.25;;;10.52;;
53751;SDS011;41095;53.090;6.692;2023-07-28T04:51:56;14.38;;;9.38;;
53751;SDS011;41095;53.090;6.692;2023-07-28T04:54:22;24.13;;;10.55;;
53751;SDS011;41095;53.090;6.692;2023-07-28T04:56:47;21.83;;;10.23;;
53751;SDS011;41095;53.090;6.692;2023-07-28T04:59:15;18.90;;;9.90;;
53751;SDS011;41095;53.090;6.692;2023-07-28T05:01:41;15.13;;;9.27;;
53751;SDS011;41095;53.090;6.692;2023-07-28T05:04:06;14.63;;;9.82;;
53751;SDS011;41095;53.090;6.692;2023-07-28T05:06:32;17.75;;;10.20;;
53751;SDS011;41095;53.090;6.692;2023-07-28T05:08:58;14.35;;;10.77;;
53751;SDS011;41095;53.090;6.692;2023-07-28T05:11:23;18.02;;;9.48;;
53751;SDS011;41095;53.090;6.692;2023-07-28T05:13:49;13.77;;;9.82;;
53751;SDS011;41095;53.090;6.692;2023-07-28T05:16:15;16.35;;;9.40;;
53751;SDS011;41095;53.090;6.692;2023-07-28T05:18:40;15.68;;;9.93;;
53751;SDS011;41095;53.090;6.692;2023-07-28T05:21:08;14.23;;;9.65;;
53751;SDS011;41095;53.090;6.692;2023-07-28T05:23:33;14.27;;;9.85;;
53751;SDS011;41095;53.090;6.692;2023-07-28T05:25:59;16.10;;;11.10;;
53751;SDS011;41095;53.090;6.692;2023-07-28T05:28:25;17.65;;;10.13;;
53751;SDS011;41095;53.090;6.692;2023-07-28T05:30:50;17.40;;;9.52;;
53751;SDS011;41095;53.090;6.692;2023-07-28T05:33:16;13.95;;;9.80;;
53751;SDS011;41095;53.090;6.692;2023-07-28T05:35:42;18.33;;;11.32;;
53751;SDS011;41095;53.090;6.692;2023-07-28T05:38:07;13.07;;;9.10;;
53751;SDS011;41095;53.090;6.692;2023-07-28T05:40:33;13.75;;;10.07;;
53751;SDS011;41095;53.090;6.692;2023-07-28T05:42:59;11.93;;;8.88;;
53751;SDS011;41095;53.090;6.692;2023-07-28T05:45:24;14.77;;;9.60;;
53751;SDS011;41095;53.090;6.692;2023-07-28T05:47:50;14.32;;;10.52;;
53751;SDS011;41095;53.090;6.692;2023-07-28T05:50:16;17.80;;;11.60;;
53751;SDS011;41095;53.090;6.692;2023-07-28T05:52:41;15.75;;;9.30;;
53751;SDS011;41095;53.090;6.692;2023-07-28T05:55:07;16.70;;;9.90;;
53751;SDS011;41095;53.090;6.692;2023-07-28T05:57:33;15.13;;;9.25;;
53751;SDS011;41095;53.090;6.692;2023-07-28T05:59:59;14.55;;;9.35;;
53751;SDS011;41095;53.090;6.692;2023-07-28T06:02:25;14.23;;;9.65;;
53751;SDS011;41095;53.090;6.692;2023-07-28T06:04:50;16.48;;;8.85;;
53751;SDS011;41095;53.090;6.692;2023-07-28T06:07:17;12.25;;;7.72;;
53751;SDS011;41095;53.090;6.692;2023-07-28T06:09:42;9.35;;;6.95;;
53751;SDS011;41095;53.090;6.692;2023-07-28T06:12:08;13.88;;;8.32;;
53751;SDS011;41095;53.090;6.692;2023-07-28T06:14:34;9.80;;;7.15;;
53751;SDS011;41095;53.090;6.692;2023-07-28T06:17:00;11.85;;;7.18;;
53751;SDS011;41095;53.090;6.692;2023-07-28T06:19:26;7.78;;;6.68;;
53751;SDS011;41095;53.090;6.692;2023-07-28T06:21:51;11.73;;;7.05;;
53751;SDS011;41095;53.090;6.692;2023-07-28T06:24:17;7.53;;;5.50;;
53751;SDS011;41095;53.090;6.692;2023-07-28T06:26:43;9.35;;;7.22;;
53751;SDS011;41095;53.090;6.692;2023-07-28T06:29:09;10.60;;;6.53;;
53751;SDS011;41095;53.090;6.692;2023-07-28T06:31:35;9.32;;;5.70;;
53751;SDS011;41095;53.090;6.692;2023-07-28T06:34:01;8.52;;;6.38;;
53751;SDS011;41095;53.090;6.692;2023-07-28T06:36:26;10.20;;;6.28;;
53751;SDS011;41095;53.090;6.692;2023-07-28T06:38:52;9.20;;;6.55;;
53751;SDS011;41095;53.090;6.692;2023-07-28T06:41:20;9.48;;;6.28;;
53751;SDS011;41095;53.090;6.692;2023-07-28T06:43:46;7.47;;;6.03;;
53751;SDS011;41095;53.090;6.692;2023-07-28T06:46:13;10.68;;;6.47;;
53751;SDS011;41095;53.090;6.692;2023-07-28T06:48:39;8.98;;;6.47;;
53751;SDS011;41095;53.090;6.692;2023-07-28T06:51:06;10.45;;;5.93;;
53751;SDS011;41095;53.090;6.692;2023-07-28T06:53:32;11.18;;;5.68;;
53751;SDS011;41095;53.090;6.692;2023-07-28T06:55:59;10.38;;;5.90;;
53751;SDS011;41095;53.090;6.692;2023-07-28T06:58:25;9.18;;;6.47;;
53751;SDS011;41095;53.090;6.692;2023-07-28T07:00:51;8.73;;;6.15;;
53751;SDS011;41095;53.090;6.692;2023-07-28T07:03:17;6.25;;;5.63;;
53751;SDS011;41095;53.090;6.692;2023-07-28T07:05:43;8.65;;;6.28;;
53751;SDS011;41095;53.090;6.692;2023-07-28T07:08:08;6.63;;;5.93;;
53751;SDS011;41095;53.090;6.692;2023-07-28T07:10:34;9.13;;;6.35;;
53751;SDS011;41095;53.090;6.692;2023-07-28T07:13:00;8.95;;;6.15;;
53751;SDS011;41095;53.090;6.692;2023-07-28T07:15:25;7.57;;;5.80;;
53751;SDS011;41095;53.090;6.692;2023-07-28T07:17:51;5.90;;;5.32;;
53751;SDS011;41095;53.090;6.692;2023-07-28T07:20:17;6.15;;;5.50;;
53751;SDS011;41095;53.090;6.692;2023-07-28T07:22:42;5.88;;;5.18;;
53751;SDS011;41095;53.090;6.692;2023-07-28T07:25:08;6.57;;;5.25;;
53751;SDS011;41095;53.090;6.692;2023-07-28T07:27:34;5.78;;;4.80;;
53751;SDS011;41095;53.090;6.692;2023-07-28T07:30:00;6.35;;;5.45;;
53751;SDS011;41095;53.090;6.692;2023-07-28T07:32:26;4.43;;;4.03;;
53751;SDS011;41095;53.090;6.692;2023-07-28T07:34:51;4.65;;;4.22;;
53751;SDS011;41095;53.090;6.692;2023-07-28T07:37:18;4.22;;;3.83;;
53751;SDS011;41095;53.090;6.692;2023-07-28T07:39:44;4.57;;;4.28;;
53751;SDS011;41095;53.090;6.692;2023-07-28T07:42:10;4.78;;;4.18;;
53751;SDS011;41095;53.090;6.692;2023-07-28T07:44:39;4.45;;;4.05;;
53751;SDS011;41095;53.090;6.692;2023-07-28T07:47:11;3.83;;;3.53;;
53751;SDS011;41095;53.090;6.692;2023-07-28T07:49:39;7.07;;;3.70;;
53751;SDS011;41095;53.090;6.692;2023-07-28T07:52:06;3.47;;;3.17;;
53751;SDS011;41095;53.090;6.692;2023-07-28T07:54:33;4.50;;;4.10;;
53751;SDS011;41095;53.090;6.692;2023-07-28T07:56:59;3.72;;;3.42;;
53751;SDS011;41095;53.090;6.692;2023-07-28T07:59:24;4.00;;;3.60;;
53751;SDS011;41095;53.090;6.692;2023-07-28T08:01:53;5.30;;;3.38;;
53751;SDS011;41095;53.090;6.692;2023-07-28T08:04:19;4.13;;;3.08;;
53751;SDS011;41095;53.090;6.692;2023-07-28T08:06:44;4.35;;;4.05;;
53751;SDS011;41095;53.090;6.692;2023-07-28T08:09:10;4.93;;;3.15;;
53751;SDS011;41095;53.090;6.692;2023-07-28T08:11:36;4.95;;;3.58;;
53751;SDS011;41095;53.090;6.692;2023-07-28T08:14:01;3.53;;;3.22;;
53751;SDS011;41095;53.090;6.692;2023-07-28T08:16:27;3.83;;;3.25;;
53751;SDS011;41095;53.090;6.692;2023-07-28T08:18:53;5.88;;;3.28;;
53751;SDS011;41095;53.090;6.692;2023-07-28T08:21:19;3.50;;;3.20;;
53751;SDS011;41095;53.090;6.692;2023-07-28T08:23:45;3.13;;;2.83;;
53751;SDS011;41095;53.090;6.692;2023-07-28T08:26:10;4.13;;;3.17;;
53751;SDS011;41095;53.090;6.692;2023-07-28T08:28:36;3.90;;;3.60;;
53751;SDS011;41095;53.090;6.692;2023-07-28T08:31:02;4.65;;;3.40;;
53751;SDS011;41095;53.090;6.692;2023-07-28T08:33:28;5.18;;;3.42;;
53751;SDS011;41095;53.090;6.692;2023-07-28T08:35:54;5.18;;;3.65;;
53751;SDS011;41095;53.090;6.692;2023-07-28T08:38:20;3.08;;;2.78;;
53751;SDS011;41095;53.090;6.692;2023-07-28T08:40:46;5.32;;;2.80;;
53751;SDS011;41095;53.090;6.692;2023-07-28T08:43:12;5.00;;;3.10;;
53751;SDS011;41095;53.090;6.692;2023-07-28T08:45:37;3.63;;;3.00;;
53751;SDS011;41095;53.090;6.692;2023-07-28T08:48:03;3.28;;;2.83;;
53751;SDS011;41095;53.090;6.692;2023-07-28T08:50:30;3.75;;;3.20;;
53751;SDS011;41095;53.090;6.692;2023-07-28T08:52:56;3.95;;;2.40;;
53751;SDS011;41095;53.090;6.692;2023-07-28T08:55:22;4.72;;;2.58;;
53751;SDS011;41095;53.090;6.692;2023-07-28T08:57:48;4.75;;;2.58;;
53751;SDS011;41095;53.090;6.692;2023-07-28T09:00:14;3.03;;;2.38;;
53751;SDS011;41095;53.090;6.692;2023-07-28T09:02:42;4.30;;;2.40;;
53751;SDS011;41095;53.090;6.692;2023-07-28T09:05:29;3.55;;;2.85;;
53751;SDS011;41095;53.090;6.692;2023-07-28T09:07:58;4.05;;;3.15;;
53751;SDS011;41095;53.090;6.692;2023-07-28T09:10:24;4.38;;;2.50;;
53751;SDS011;41095;53.090;6.692;2023-07-28T09:12:50;3.22;;;2.85;;
53751;SDS011;41095;53.090;6.692;2023-07-28T09:15:16;5.80;;;2.63;;
53751;SDS011;41095;53.090;6.692;2023-07-28T09:17:45;3.35;;;2.15;;
53751;SDS011;41095;53.090;6.692;2023-07-28T09:20:14;3.88;;;2.33;;
53751;SDS011;41095;53.090;6.692;2023-07-28T09:22:44;5.22;;;2.53;;
53751;SDS011;41095;53.090;6.692;2023-07-28T09:25:11;3.70;;;2.35;;
53751;SDS011;41095;53.090;6.692;2023-07-28T09:27:38;2.10;;;1.90;;
53751;SDS011;41095;53.090;6.692;2023-07-28T09:30:04;2.50;;;2.17;;
53751;SDS011;41095;53.090;6.692;2023-07-28T09:32:30;3.55;;;2.22;;
53751;SDS011;41095;53.090;6.692;2023-07-28T09:35:11;3.97;;;2.35;;
53751;SDS011;41095;53.090;6.692;2023-07-28T09:37:39;5.03;;;2.40;;
53751;SDS011;41095;53.090;6.692;2023-07-28T09:40:09;3.92;;;2.75;;
53751;SDS011;41095;53.090;6.692;2023-07-28T09:42:37;4.50;;;2.10;;
53751;SDS011;41095;53.090;6.692;2023-07-28T09:45:07;4.95;;;2.30;;
53751;SDS011;41095;53.090;6.692;2023-07-28T09:47:35;2.45;;;1.83;;
53751;SDS011;41095;53.090;6.692;2023-07-28T09:50:05;3.70;;;2.30;;
53751;SDS011;41095;53.090;6.692;2023-07-28T09:52:43;4.35;;;2.17;;
53751;SDS011;41095;53.090;6.692;2023-07-28T09:55:12;4.05;;;2.03;;
53751;SDS011;41095;53.090;6.692;2023-07-28T09:57:47;2.08;;;1.88;;
53751;SDS011;41095;53.090;6.692;2023-07-28T10:00:16;2.28;;;2.08;;
53751;SDS011;41095;53.090;6.692;2023-07-28T10:02:44;2.35;;;2.15;;
53751;SDS011;41095;53.090;6.692;2023-07-28T10:05:10;2.83;;;2.40;;
53751;SDS011;41095;53.090;6.692;2023-07-28T10:07:37;3.75;;;2.35;;
53751;SDS011;41095;53.090;6.692;2023-07-28T10:10:04;3.88;;;2.63;;
53751;SDS011;41095;53.090;6.692;2023-07-28T10:12:39;2.63;;;2.20;;
53751;SDS011;41095;53.090;6.692;2023-07-28T10:15:13;3.63;;;2.50;;
53751;SDS011;41095;53.090;6.692;2023-07-28T10:17:43;4.38;;;2.13;;
53751;SDS011;41095;53.090;6.692;2023-07-28T10:25:37;3.60;;;2.63;;
53751;SDS011;41095;53.090;6.692;2023-07-28T10:28:07;4.20;;;2.30;;
53751;SDS011;41095;53.090;6.692;2023-07-28T10:30:57;6.22;;;2.88;;
53751;SDS011;41095;53.090;6.692;2023-07-28T10:36:00;5.20;;;2.85;;
53751;SDS011;41095;53.090;6.692;2023-07-28T10:39:01;3.10;;;2.50;;
53751;SDS011;41095;53.090;6.692;2023-07-28T10:41:34;3.22;;;2.92;;
53751;SDS011;41095;53.090;6.692;2023-07-28T10:44:00;4.78;;;2.95;;
53751;SDS011;41095;53.090;6.692;2023-07-28T10:46:27;3.15;;;2.60;;
53751;SDS011;41095;53.090;6.692;2023-07-28T10:48:53;3.10;;;2.22;;
53751;SDS011;41095;53.090;6.692;2023-07-28T10:51:22;4.93;;;2.75;;
53751;SDS011;41095;53.090;6.692;2023-07-28T10:53:59;3.20;;;2.90;;
53751;SDS011;41095;53.090;6.692;2023-07-28T10:56:27;3.85;;;3.20;;
53751;SDS011;41095;53.090;6.692;2023-07-28T10:58:59;2.80;;;2.33;;
53751;SDS011;41095;53.090;6.692;2023-07-28T11:01:39;6.68;;;3.50;;
53751;SDS011;41095;53.090;6.692;2023-07-28T11:04:15;4.13;;;2.88;;
53751;SDS011;41095;53.090;6.692;2023-07-28T11:06:44;3.38;;;2.70;;
53751;SDS011;41095;53.090;6.692;2023-07-28T11:09:12;4.32;;;2.97;;
53751;SDS011;41095;53.090;6.692;2023-07-28T11:11:40;2.72;;;2.42;;
53751;SDS011;41095;53.090;6.692;2023-07-28T11:14:07;3.58;;;2.38;;
53751;SDS011;41095;53.090;6.692;2023-07-28T11:16:34;4.45;;;2.70;;
53751;SDS011;41095;53.090;6.692;2023-07-28T11:19:07;2.50;;;2.30;;
53751;SDS011;41095;53.090;6.692;2023-07-28T11:21:38;4.53;;;2.47;;
53751;SDS011;41095;53.090;6.692;2023-07-28T11:24:09;3.70;;;2.90;;
53751;SDS011;41095;53.090;6.692;2023-07-28T11:26:35;3.20;;;2.60;;
53751;SDS011;41095;53.090;6.692;2023-07-28T11:29:02;4.53;;;2.90;;
53751;SDS011;41095;53.090;6.692;2023-07-28T11:31:29;3.53;;;2.95;;
53751;SDS011;41095;53.090;6.692;2023-07-28T11:33:55;3.83;;;2.65;;
53751;SDS011;41095;53.090;6.692;2023-07-28T11:36:22;2.90;;;2.55;;
53751;SDS011;41095;53.090;6.692;2023-07-28T11:38:48;6.43;;;2.92;;
53751;SDS011;41095;53.090;6.692;2023-07-28T11:41:15;2.40;;;2.20;;
53751;SDS011;41095;53.090;6.692;2023-07-28T11:43:41;3.03;;;2.03;;
53751;SDS011;41095;53.090;6.692;2023-07-28T11:51:47;2.90;;;2.67;;
53751;SDS011;41095;53.090;6.692;2023-07-28T11:54:15;3.50;;;2.17;;
53751;SDS011;41095;53.090;6.692;2023-07-28T11:56:45;2.92;;;2.70;;
53751;SDS011;41095;53.090;6.692;2023-07-28T11:59:12;4.25;;;2.28;;
53751;SDS011;41095;53.090;6.692;2023-07-28T12:04:36;2.28;;;2.03;;
53751;SDS011;41095;53.090;6.692;2023-07-28T12:07:07;1.92;;;1.80;;
53751;SDS011;41095;53.090;6.692;2023-07-28T12:12:15;4.60;;;2.55;;
53751;SDS011;41095;53.090;6.692;2023-07-28T12:14:41;3.55;;;1.70;;
53751;SDS011;41095;53.090;6.692;2023-07-28T12:17:14;2.22;;;1.90;;
53751;SDS011;41095;53.090;6.692;2023-07-28T12:19:41;3.58;;;2.38;;
53751;SDS011;41095;53.090;6.692;2023-07-28T12:22:08;2.97;;;2.38;;
53751;SDS011;41095;53.090;6.692;2023-07-28T12:24:34;2.58;;;2.13;;
53751;SDS011;41095;53.090;6.692;2023-07-28T12:27:00;2.67;;;2.20;;
53751;SDS011;41095;53.090;6.692;2023-07-28T12:29:26;1.90;;;1.80;;
53751;SDS011;41095;53.090;6.692;2023-07-28T12:31:51;2.20;;;1.67;;
53751;SDS011;41095;53.090;6.692;2023-07-28T12:34:17;2.75;;;1.77;;
53751;SDS011;41095;53.090;6.692;2023-07-28T12:36:43;1.98;;;1.70;;
53751;SDS011;41095;53.090;6.692;2023-07-28T12:39:09;2.50;;;1.67;;
53751;SDS011;41095;53.090;6.692;2023-07-28T12:41:35;3.78;;;2.63;;
53751;SDS011;41095;53.090;6.692;2023-07-28T12:44:01;2.28;;;2.08;;
53751;SDS011;41095;53.090;6.692;2023-07-28T12:46:26;2.75;;;1.90;;
53751;SDS011;41095;53.090;6.692;2023-07-28T12:48:52;2.42;;;1.92;;
53751;SDS011;41095;53.090;6.692;2023-07-28T12:51:18;2.88;;;2.15;;
53751;SDS011;41095;53.090;6.692;2023-07-28T12:53:43;3.83;;;1.77;;
53751;SDS011;41095;53.090;6.692;2023-07-28T12:56:09;1.80;;;1.70;;
53751;SDS011;41095;53.090;6.692;2023-07-28T12:58:35;2.08;;;1.88;;
53751;SDS011;41095;53.090;6.692;2023-07-28T13:01:00;3.55;;;2.00;;
53751;SDS011;41095;53.090;6.692;2023-07-28T13:03:28;2.33;;;2.10;;
53751;SDS011;41095;53.090;6.692;2023-07-28T13:05:54;4.80;;;2.60;;
53751;SDS011;41095;53.090;6.692;2023-07-28T13:08:19;1.95;;;1.42;;
53751;SDS011;41095;53.090;6.692;2023-07-28T13:10:45;2.35;;;1.80;;
53751;SDS011;41095;53.090;6.692;2023-07-28T13:13:11;3.08;;;1.88;;
53751;SDS011;41095;53.090;6.692;2023-07-28T13:15:36;1.73;;;1.63;;
53751;SDS011;41095;53.090;6.692;2023-07-28T13:18:02;1.58;;;1.48;;
53751;SDS011;41095;53.090;6.692;2023-07-28T13:20:28;3.00;;;2.20;;
53751;SDS011;41095;53.090;6.692;2023-07-28T13:22:53;3.33;;;2.25;;
53751;SDS011;41095;53.090;6.692;2023-07-28T13:25:19;3.55;;;2.13;;
53751;SDS011;41095;53.090;6.692;2023-07-28T13:27:45;3.75;;;2.35;;
53751;SDS011;41095;53.090;6.692;2023-07-28T13:30:10;2.35;;;2.22;;
53751;SDS011;41095;53.090;6.692;2023-07-28T13:32:36;3.20;;;2.88;;
53751;SDS011;41095;53.090;6.692;2023-07-28T13:35:02;2.78;;;2.17;;
53751;SDS011;41095;53.090;6.692;2023-07-28T13:37:28;2.65;;;2.30;;
53751;SDS011;41095;53.090;6.692;2023-07-28T13:39:54;3.25;;;2.75;;
53751;SDS011;41095;53.090;6.692;2023-07-28T13:42:20;2.83;;;2.45;;
53751;SDS011;41095;53.090;6.692;2023-07-28T13:44:45;3.45;;;2.58;;
53751;SDS011;41095;53.090;6.692;2023-07-28T13:47:11;3.55;;;2.10;;
53751;SDS011;41095;53.090;6.692;2023-07-28T13:49:37;5.07;;;2.67;;
53751;SDS011;41095;53.090;6.692;2023-07-28T13:52:03;5.70;;;2.50;;
53751;SDS011;41095;53.090;6.692;2023-07-28T13:54:29;5.88;;;3.03;;
53751;SDS011;41095;53.090;6.692;2023-07-28T13:56:54;2.90;;;2.67;;
53751;SDS011;41095;53.090;6.692;2023-07-28T13:59:20;4.60;;;3.17;;
53751;SDS011;41095;53.090;6.692;2023-07-28T14:01:46;3.00;;;2.80;;
53751;SDS011;41095;53.090;6.692;2023-07-28T14:04:12;4.50;;;2.78;;
53751;SDS011;41095;53.090;6.692;2023-07-28T14:06:39;2.40;;;2.20;;
53751;SDS011;41095;53.090;6.692;2023-07-28T14:09:04;2.40;;;2.00;;
53751;SDS011;41095;53.090;6.692;2023-07-28T14:11:30;2.40;;;2.20;;
53751;SDS011;41095;53.090;6.692;2023-07-28T14:13:56;2.45;;;2.22;;
53751;SDS011;41095;53.090;6.692;2023-07-28T14:16:22;2.30;;;1.95;;
53751;SDS011;41095;53.090;6.692;2023-07-28T14:18:48;3.97;;;2.58;;
53751;SDS011;41095;53.090;6.692;2023-07-28T14:21:15;2.63;;;2.35;;
53751;SDS011;41095;53.090;6.692;2023-07-28T14:23:41;6.38;;;2.53;;
53751;SDS011;41095;53.090;6.692;2023-07-28T14:26:06;2.75;;;2.22;;
53751;SDS011;41095;53.090;6.692;2023-07-28T14:28:32;4.03;;;2.42;;
53751;SDS011;41095;53.090;6.692;2023-07-28T14:30:58;4.80;;;2.10;;
53751;SDS011;41095;53.090;6.692;2023-07-28T14:33:23;2.85;;;2.17;;
53751;SDS011;41095;53.090;6.692;2023-07-28T14:35:49;4.57;;;2.50;;
53751;SDS011;41095;53.090;6.692;2023-07-28T14:38:15;4.82;;;3.08;;
53751;SDS011;41095;53.090;6.692;2023-07-28T14:40:42;3.35;;;2.53;;
53751;SDS011;41095;53.090;6.692;2023-07-28T14:43:11;4.03;;;3.63;;
53751;SDS011;41095;53.090;6.692;2023-07-28T14:45:37;4.40;;;3.20;;
53751;SDS011;41095;53.090;6.692;2023-07-28T14:48:03;4.07;;;3.10;;
53751;SDS011;41095;53.090;6.692;2023-07-28T14:50:29;4.45;;;3.10;;
53751;SDS011;41095;53.090;6.692;2023-07-28T14:52:57;3.80;;;3.13;;
53751;SDS011;41095;53.090;6.692;2023-07-28T14:55:23;4.35;;;3.63;;
53751;SDS011;41095;53.090;6.692;2023-07-28T14:57:49;4.60;;;3.67;;
53751;SDS011;41095;53.090;6.692;2023-07-28T15:00:14;4.90;;;3.58;;
53751;SDS011;41095;53.090;6.692;2023-07-28T15:02:40;5.55;;;3.92;;